Time;durP1;ratioP1;P1;durP2;ratioP2;P2;SDS_P1;SDS_P2;PMS_P1;PMS_P2;Temp;Humidity;BMP_temperature;BMP_pressure;BME280_temperature;BME280_humidity;BME280_pressure;Samples;Min_cycle;Max_cycle;Signal;HPM_P1;HPM_P2
2022/11/19 00:00:18;;;;;;;10.95;8.60;;;;;;;;;;5031958;28;20021;-73
2022/11/19 00:02:43;;;;;;;10.55;8.02;;;;;;;;;;5032292;28;20033;-73
2022/11/19 00:05:09;;;;;;;8.70;7.45;;;;;;;;;;5033488;28;20536;-73
2022/11/19 00:07:34;;;;;;;11.73;8.02;;;;;;;;;;5033409;28;20036;-71
2022/11/19 00:09:59;;;;;;;13.07;9.45;;;;;;;;;;5033364;28;20357;-71
2022/11/19 00:15:09;;;;;;;19.55;10.88;;;;;;;;;;5037333;28;20041;-71
2022/11/19 00:17:34;;;;;;;12.70;9.13;;;;;;;;;;5037113;28;20033;-71
2022/11/19 00:20:00;;;;;;;19.52;11.13;;;;;;;;;;5037252;28;20481;-71
2022/11/19 00:22:25;;;;;;;16.33;10.75;;;;;;;;;;5037386;28;20457;-71
2022/11/19 00:24:50;;;;;;;16.23;9.57;;;;;;;;;;5036948;28;20371;-70
2022/11/19 00:27:16;;;;;;;12.55;9.15;;;;;;;;;;5037123;28;20064;-71
2022/11/19 00:29:41;;;;;;;11.75;9.10;;;;;;;;;;5036788;28;20026;-70
2022/11/19 00:32:07;;;;;;;13.70;9.13;;;;;;;;;;5036890;28;20073;-71
2022/11/19 00:34:32;;;;;;;14.00;9.48;;;;;;;;;;5035294;28;20044;-70
2022/11/19 00:36:57;;;;;;;13.77;8.35;;;;;;;;;;5036408;28;20493;-72
2022/11/19 00:39:23;;;;;;;13.40;9.07;;;;;;;;;;5037010;28;20175;-72
2022/11/19 00:41:48;;;;;;;13.88;9.57;;;;;;;;;;5036667;28;20063;-72
2022/11/19 00:44:14;;;;;;;14.68;9.50;;;;;;;;;;5036400;28;20017;-72
2022/11/19 00:46:39;;;;;;;15.80;10.13;;;;;;;;;;5036314;28;20096;-70
2022/11/19 00:49:05;;;;;;;20.25;9.80;;;;;;;;;;5036225;28;20033;-70
2022/11/19 00:51:30;;;;;;;16.65;9.73;;;;;;;;;;5036382;28;20021;-71
2022/11/19 00:53:56;;;;;;;24.65;11.52;;;;;;;;;;5036127;28;20121;-70
2022/11/19 00:56:22;;;;;;;19.45;11.68;;;;;;;;;;5036220;28;20025;-71
2022/11/19 00:58:49;;;;;;;11.90;9.82;;;;;;;;;;5034788;28;20029;-70
2022/11/19 01:01:15;;;;;;;14.85;11.85;;;;;;;;;;5036389;28;20029;-71
2022/11/19 01:03:44;;;;;;;21.88;15.82;;;;;;;;;;5036588;28;20024;-71
2022/11/19 01:06:09;;;;;;;18.55;14.05;;;;;;;;;;5036103;28;20032;-71
2022/11/19 01:08:35;;;;;;;19.30;14.25;;;;;;;;;;5034628;28;20132;-71
2022/11/19 01:11:11;;;;;;;12.85;10.32;;;;;;;;;;5036106;28;20022;-71
2022/11/19 01:13:37;;;;;;;12.15;9.50;;;;;;;;;;5035128;28;20515;-71
2022/11/19 01:16:04;;;;;;;8.35;7.30;;;;;;;;;;5035847;28;20021;-71
2022/11/19 01:18:29;;;;;;;13.65;9.23;;;;;;;;;;5036118;28;20112;-71
2022/11/19 01:20:55;;;;;;;10.40;8.18;;;;;;;;;;5035318;28;20105;-71
2022/11/19 01:23:20;;;;;;;11.93;8.80;;;;;;;;;;5035680;28;20021;-71
2022/11/19 01:25:46;;;;;;;16.38;10.65;;;;;;;;;;5033713;28;20038;-71
2022/11/19 01:28:11;;;;;;;14.13;9.68;;;;;;;;;;5035501;28;20037;-70
2022/11/19 01:30:40;;;;;;;13.85;10.48;;;;;;;;;;5034263;28;20035;-70
2022/11/19 01:33:06;;;;;;;15.73;11.73;;;;;;;;;;5035612;28;20025;-71
2022/11/19 01:35:33;;;;;;;17.33;12.13;;;;;;;;;;5035344;28;20433;-71
2022/11/19 01:37:59;;;;;;;16.13;12.65;;;;;;;;;;5035413;28;20037;-71
2022/11/19 01:40:25;;;;;;;12.07;10.43;;;;;;;;;;5035621;28;20028;-71
2022/11/19 01:42:52;;;;;;;11.15;8.55;;;;;;;;;;5035564;28;20018;-70
2022/11/19 01:45:21;;;;;;;13.30;9.02;;;;;;;;;;5035232;28;20021;-70
2022/11/19 01:47:46;;;;;;;13.07;9.60;;;;;;;;;;5035188;28;20113;-70
2022/11/19 01:50:11;;;;;;;10.60;8.85;;;;;;;;;;5035146;28;20064;-71
2022/11/19 01:52:38;;;;;;;11.55;8.73;;;;;;;;;;5035246;28;20044;-71
2022/11/19 01:55:04;;;;;;;11.20;9.07;;;;;;;;;;5033885;28;20083;-72
2022/11/19 01:57:30;;;;;;;10.82;9.43;;;;;;;;;;5035070;28;20049;-72
2022/11/19 01:59:55;;;;;;;11.25;8.80;;;;;;;;;;5033641;28;20029;-71
2022/11/19 02:02:24;;;;;;;13.90;9.75;;;;;;;;;;5034991;28;20028;-71
2022/11/19 02:04:50;;;;;;;10.43;8.77;;;;;;;;;;5034854;28;20018;-71
2022/11/19 02:07:23;;;;;;;12.43;8.90;;;;;;;;;;5047040;23;20037;31
2022/11/19 02:09:49;;;;;;;11.13;8.05;;;;;;;;;;4995275;28;20392;-74
2022/11/19 02:12:29;;;;;;;9.15;8.13;;;;;;;;;;5015304;28;20037;-73
2022/11/19 02:15:14;;;;;;;11.63;8.82;;;;;;;;;;5015038;28;20536;-74
2022/11/19 02:17:58;;;;;;;15.77;10.60;;;;;;;;;;5013537;28;20073;-73
2022/11/19 02:20:30;;;;;;;14.52;9.98;;;;;;;;;;5014798;28;20022;-73
2022/11/19 02:23:04;;;;;;;12.27;8.85;;;;;;;;;;5014909;28;20390;-73
2022/11/19 02:25:43;;;;;;;12.10;9.38;;;;;;;;;;5013459;28;20030;-73
2022/11/19 02:28:08;;;;;;;15.27;10.02;;;;;;;;;;5014705;28;20363;-73
2022/11/19 02:30:38;;;;;;;16.58;10.90;;;;;;;;;;5014809;28;20056;-74
2022/11/19 02:33:15;;;;;;;18.88;11.27;;;;;;;;;;5013405;28;20033;-74
2022/11/19 02:35:45;;;;;;;15.43;10.00;;;;;;;;;;5013926;28;20030;-74
2022/11/19 02:38:10;;;;;;;10.43;8.52;;;;;;;;;;5013533;28;20026;-74
2022/11/19 02:40:47;;;;;;;11.48;9.05;;;;;;;;;;5014479;28;20033;-74
2022/11/19 02:43:15;;;;;;;12.07;8.85;;;;;;;;;;5014494;28;20030;-74
2022/11/19 02:45:47;;;;;;;12.68;8.98;;;;;;;;;;5014388;28;20012;-74
2022/11/19 02:48:24;;;;;;;11.00;8.63;;;;;;;;;;5014375;28;20160;-71
2022/11/19 02:50:51;;;;;;;11.57;8.65;;;;;;;;;;5014517;28;20030;-71
2022/11/19 02:53:17;;;;;;;11.20;8.02;;;;;;;;;;5014835;28;20454;-71
2022/11/19 02:56:09;;;;;;;12.68;9.13;;;;;;;;;;5014155;28;20470;-70
2022/11/19 03:06:42;;;;;;;10.82;8.50;;;;;;;;;;5014338;28;20069;-74
2022/11/19 03:09:07;;;;;;;12.50;9.15;;;;;;;;;;5012805;28;20045;-74
2022/11/19 03:11:33;;;;;;;12.80;9.50;;;;;;;;;;5014347;28;20485;-74
2022/11/19 03:17:05;;;;;;;12.60;9.27;;;;;;;;;;5014161;28;20038;-73
2022/11/19 03:19:33;;;;;;;13.02;9.48;;;;;;;;;;5014423;28;20360;-73
2022/11/19 03:22:04;;;;;;;15.02;10.27;;;;;;;;;;5013890;28;20140;-73
2022/11/19 03:24:32;;;;;;;13.02;10.20;;;;;;;;;;5014381;28;20030;-73
2022/11/19 03:27:02;;;;;;;16.25;10.77;;;;;;;;;;5028061;23;20054;-73
2022/11/19 03:29:31;;;;;;;15.63;11.20;;;;;;;;;;5012638;28;20033;-73
2022/11/19 03:32:11;;;;;;;19.27;12.52;;;;;;;;;;5012905;28;20321;-73
2022/11/19 03:34:37;;;;;;;;;;;;;;;;;;5014258;28;20168;-73
2022/11/19 03:37:03;;;;;;;24.53;13.20;;;;;;;;;;5013747;28;20012;-72
2022/11/19 03:39:29;;;;;;;21.55;12.50;;;;;;;;;;5012949;28;20376;-73
2022/11/19 03:41:55;;;;;;;18.35;11.88;;;;;;;;;;5014005;28;20097;-73
2022/11/19 03:44:24;;;;;;;22.23;13.55;;;;;;;;;;5014242;28;20033;-73
2022/11/19 03:46:54;;;;;;;14.18;10.95;;;;;;;;;;5013867;28;20052;-74
2022/11/19 03:49:22;;;;;;;12.75;9.85;;;;;;;;;;5016724;28;20033;-73
2022/11/19 03:51:53;;;;;;;12.52;10.10;;;;;;;;;;5017866;28;20018;-74
2022/11/19 03:54:18;;;;;;;10.45;8.45;;;;;;;;;;5018171;28;20048;-74
2022/11/19 03:56:45;;;;;;;9.15;7.40;;;;;;;;;;5017477;28;20478;-74
2022/11/19 03:59:11;;;;;;;9.13;7.20;;;;;;;;;;5017767;28;20037;-74
2022/11/19 04:01:37;;;;;;;8.40;7.40;;;;;;;;;;5017745;28;20029;-74
2022/11/19 04:06:46;;;;;;;8.52;7.20;;;;;;;;;;5017877;28;20029;-73
2022/11/19 04:09:12;;;;;;;7.47;6.78;;;;;;;;;;5016017;28;20030;-73
2022/11/19 04:11:37;;;;;;;7.32;6.63;;;;;;;;;;5016095;28;20108;-73
2022/11/19 04:16:46;;;;;;;9.82;8.63;;;;;;;;;;5023673;23;20104;-71
2022/11/19 04:19:12;;;;;;;12.20;10.48;;;;;;;;;;5017398;28;20034;-72
2022/11/19 04:21:37;;;;;;;6.95;6.15;;;;;;;;;;5015844;28;20018;-72
2022/11/19 04:24:03;;;;;;;7.45;6.78;;;;;;;;;;5015781;28;20470;-72
2022/11/19 04:26:28;;;;;;;6.90;6.30;;;;;;;;;;5017289;28;20029;-72
2022/11/19 04:28:53;;;;;;;7.75;7.05;;;;;;;;;;5016906;28;20045;-72
2022/11/19 04:31:19;;;;;;;7.68;6.88;;;;;;;;;;5016899;28;20585;-71
2022/11/19 04:33:44;;;;;;;8.02;7.32;;;;;;;;;;5016247;28;20045;-72
2022/11/19 04:36:09;;;;;;;6.97;6.38;;;;;;;;;;5017014;28;20026;-72
2022/11/19 04:38:35;;;;;;;7.20;6.20;;;;;;;;;;5016729;28;20065;-71
2022/11/19 04:41:00;;;;;;;7.18;6.47;;;;;;;;;;5017271;28;20028;-70
2022/11/19 04:43:26;;;;;;;7.70;6.78;;;;;;;;;;5016929;28;20116;-71
2022/11/19 04:45:51;;;;;;;12.23;10.98;;;;;;;;;;5017176;28;20054;-71
2022/11/19 04:48:17;;;;;;;10.93;9.82;;;;;;;;;;5015330;28;20036;-72
2022/11/19 04:50:42;;;;;;;10.25;9.32;;;;;;;;;;5015399;28;20025;-72
2022/11/19 04:53:07;;;;;;;17.35;14.13;;;;;;;;;;5017039;28;20038;-72
2022/11/19 04:55:32;;;;;;;7.00;6.40;;;;;;;;;;5015500;28;20018;-72
2022/11/19 04:57:58;;;;;;;7.15;6.45;;;;;;;;;;5016665;28;20049;-70
2022/11/19 05:00:23;;;;;;;12.90;11.60;;;;;;;;;;5014839;28;20022;-70
2022/11/19 05:02:49;;;;;;;9.55;8.43;;;;;;;;;;5015078;28;20466;-71
2022/11/19 05:05:14;;;;;;;7.63;6.63;;;;;;;;;;5016266;28;20018;-72
2022/11/19 05:07:39;;;;;;;7.60;6.32;;;;;;;;;;5014935;28;20037;-72
2022/11/19 05:10:05;;;;;;;6.68;5.97;;;;;;;;;;5016466;28;20075;-71
2022/11/19 05:12:30;;;;;;;6.20;5.60;;;;;;;;;;5016382;28;20099;-71
2022/11/19 05:14:55;;;;;;;6.03;5.38;;;;;;;;;;5014579;28;20046;-71
2022/11/19 05:17:21;;;;;;;6.53;5.90;;;;;;;;;;5014375;28;20037;-72
2022/11/19 05:19:46;;;;;;;6.38;5.88;;;;;;;;;;5014600;28;20032;-71
2022/11/19 05:22:12;;;;;;;7.13;6.25;;;;;;;;;;5014748;28;20030;-71
2022/11/19 05:24:37;;;;;;;6.55;6.00;;;;;;;;;;5014875;28;20505;-72
2022/11/19 05:27:03;;;;;;;6.45;5.85;;;;;;;;;;5014635;28;20044;-72
2022/11/19 05:29:28;;;;;;;6.97;6.28;;;;;;;;;;5014760;28;20101;-72
2022/11/19 05:31:55;;;;;;;6.88;6.28;;;;;;;;;;5013826;28;20100;-72
2022/11/19 05:34:21;;;;;;;6.60;5.70;;;;;;;;;;5015003;28;20129;-72
2022/11/19 05:36:46;;;;;;;6.75;6.05;;;;;;;;;;5014853;28;20479;-71
2022/11/19 05:39:11;;;;;;;7.07;6.45;;;;;;;;;;5014702;28;20026;-72
2022/11/19 05:41:39;;;;;;;7.07;6.38;;;;;;;;;;5015124;28;20116;-72
2022/11/19 05:44:04;;;;;;;6.97;6.38;;;;;;;;;;5014568;28;20025;-71
2022/11/19 05:46:30;;;;;;;6.97;6.35;;;;;;;;;;5015022;28;20022;-72
2022/11/19 05:48:55;;;;;;;6.95;6.32;;;;;;;;;;5012795;28;20397;-71
2022/11/19 05:51:20;;;;;;;7.50;6.80;;;;;;;;;;5014198;28;20041;-74
2022/11/19 05:53:46;;;;;;;8.25;7.28;;;;;;;;;;5014417;28;20045;-74
2022/11/19 05:56:11;;;;;;;8.45;7.57;;;;;;;;;;5013432;28;20042;-74
2022/11/19 05:58:36;;;;;;;7.63;6.90;;;;;;;;;;5014249;28;20024;-74
2022/11/19 06:01:03;;;;;;;7.53;6.82;;;;;;;;;;5012950;28;20119;-74
2022/11/19 06:03:28;;;;;;;7.22;6.63;;;;;;;;;;5013921;28;20096;-74
2022/11/19 06:05:53;;;;;;;9.38;7.88;;;;;;;;;;5014057;28;20118;-74
2022/11/19 06:08:19;;;;;;;11.43;7.75;;;;;;;;;;5013861;28;20053;-74
2022/11/19 06:10:44;;;;;;;23.80;14.07;;;;;;;;;;5012801;28;20088;-74
2022/11/19 06:13:10;;;;;;;12.63;10.80;;;;;;;;;;5012809;28;20053;-74
2022/11/19 06:15:35;;;;;;;14.48;11.27;;;;;;;;;;5013725;28;20037;-74
2022/11/19 06:18:01;;;;;;;18.85;13.57;;;;;;;;;;5013653;28;20026;-74
2022/11/19 06:20:26;;;;;;;18.95;14.45;;;;;;;;;;5013818;28;20068;-74
2022/11/19 06:22:51;;;;;;;21.23;16.65;;;;;;;;;;5013516;28;20026;-74
2022/11/19 06:25:17;;;;;;;14.75;12.10;;;;;;;;;;5012400;28;20030;-72
2022/11/19 06:27:42;;;;;;;62.40;31.67;;;;;;;;;;5012146;28;20108;-72
2022/11/19 06:30:08;;;;;;;52.53;25.77;;;;;;;;;;5013518;28;20026;-72
2022/11/19 06:32:33;;;;;;;64.03;30.17;;;;;;;;;;5013886;28;20029;-71
2022/11/19 06:34:59;;;;;;;15.32;10.13;;;;;;;;;;5012524;28;20076;-71
2022/11/19 06:37:24;;;;;;;8.13;7.13;;;;;;;;;;5011955;28;20497;-72
2022/11/19 06:39:49;;;;;;;6.65;6.03;;;;;;;;;;5013451;28;20022;-72
2022/11/19 06:42:36;;;;;;;8.07;7.25;;;;;;;;;;5109087;27;20475;-72
2022/11/19 06:45:06;;;;;;;9.32;7.63;;;;;;;;;;5108581;28;20024;-73
2022/11/19 06:47:32;;;;;;;10.55;7.80;;;;;;;;;;5108424;28;20036;-73
2022/11/19 06:49:57;;;;;;;8.32;7.50;;;;;;;;;;5107262;28;20026;-73
2022/11/19 06:52:23;;;;;;;8.65;7.72;;;;;;;;;;5107882;28;20034;-72
2022/11/19 06:54:48;;;;;;;9.88;7.78;;;;;;;;;;5108269;28;20042;-74
2022/11/19 06:57:14;;;;;;;10.52;7.70;;;;;;;;;;5090134;28;20500;-74
2022/11/19 06:59:39;;;;;;;13.07;8.73;;;;;;;;;;5090113;28;20027;-74
2022/11/19 07:02:05;;;;;;;34.00;16.17;;;;;;;;;;5108442;28;20571;-74
2022/11/19 07:04:30;;;;;;;34.13;16.30;;;;;;;;;;5074328;28;20016;-74
2022/11/19 07:06:56;;;;;;;26.25;13.70;;;;;;;;;;5091922;28;20118;-74
2022/11/19 07:09:21;;;;;;;17.80;11.02;;;;;;;;;;5091834;28;20072;-74
2022/11/19 07:11:46;;;;;;;11.93;8.70;;;;;;;;;;5110045;28;20431;-74
2022/11/19 07:14:12;;;;;;;8.20;7.40;;;;;;;;;;5091831;28;20412;-74
2022/11/19 07:16:37;;;;;;;9.13;8.07;;;;;;;;;;5091598;28;20042;-74
2022/11/19 07:19:04;;;;;;;10.63;9.45;;;;;;;;;;5091613;28;20390;-74
2022/11/19 07:21:30;;;;;;;13.95;9.98;;;;;;;;;;5109766;28;20035;-73
2022/11/19 07:23:56;;;;;;;14.45;11.02;;;;;;;;;;5109483;28;20674;-75
2022/11/19 07:26:21;;;;;;;15.13;10.38;;;;;;;;;;5109502;28;20032;-75
2022/11/19 07:28:48;;;;;;;14.60;10.88;;;;;;;;;;5109403;28;20063;-75
2022/11/19 07:31:13;;;;;;;21.45;12.90;;;;;;;;;;5109584;28;20051;-74
2022/11/19 07:33:39;;;;;;;19.35;12.23;;;;;;;;;;5109581;28;20370;-76
2022/11/19 07:36:06;;;;;;;12.88;9.80;;;;;;;;;;5109592;28;20040;-73
2022/11/19 07:38:31;;;;;;;11.35;9.45;;;;;;;;;;5109462;28;20059;-75
2022/11/19 07:40:57;;;;;;;16.42;12.93;;;;;;;;;;5108849;28;20100;-76
2022/11/19 07:43:22;;;;;;;10.65;9.25;;;;;;;;;;5109351;28;20466;-74
2022/11/19 07:45:48;;;;;;;10.38;9.27;;;;;;;;;;5109284;28;20061;-76
2022/11/19 07:48:13;;;;;;;11.02;9.45;;;;;;;;;;5090779;28;20028;-76
2022/11/19 07:50:39;;;;;;;10.55;9.45;;;;;;;;;;5108795;28;20020;-75
2022/11/19 07:53:05;;;;;;;10.55;9.10;;;;;;;;;;5099183;28;20065;-76
2022/11/19 07:55:31;;;;;;;10.38;9.23;;;;;;;;;;5095272;28;20024;-76
2022/11/19 07:57:56;;;;;;;11.43;10.27;;;;;;;;;;5095197;28;20036;-75
2022/11/19 08:00:21;;;;;;;9.90;8.80;;;;;;;;;;5095313;28;20024;-76
2022/11/19 08:02:48;;;;;;;11.55;9.45;;;;;;;;;;5094711;28;20063;-73
2022/11/19 08:05:14;;;;;;;12.63;10.57;;;;;;;;;;5075620;28;20081;-73
2022/11/19 08:07:43;;;;;;;12.00;10.07;;;;;;;;;;5077661;28;20115;-73
2022/11/19 08:10:09;;;;;;;13.13;10.23;;;;;;;;;;5095739;28;20024;-73
2022/11/19 08:12:35;;;;;;;11.70;9.52;;;;;;;;;;5078131;28;20266;-74
2022/11/19 08:15:00;;;;;;;9.95;8.95;;;;;;;;;;5077454;28;20028;-72
2022/11/19 08:20:10;;;;;;;11.43;9.02;;;;;;;;;;5095598;28;20471;-77
2022/11/19 08:22:37;;;;;;;10.70;9.23;;;;;;;;;;5077125;28;20022;-77
2022/11/19 08:25:03;;;;;;;7.70;6.90;;;;;;;;;;5094814;28;20028;-77
2022/11/19 08:27:28;;;;;;;7.65;6.88;;;;;;;;;;5093947;28;20462;-77
2022/11/19 08:29:54;;;;;;;8.80;7.95;;;;;;;;;;5093857;28;20043;-76
2022/11/19 08:32:19;;;;;;;8.02;7.22;;;;;;;;;;5094299;28;20459;-74
2022/11/19 08:34:44;;;;;;;9.15;8.20;;;;;;;;;;5094222;28;20032;-73
2022/11/19 08:37:12;;;;;;;9.50;8.50;;;;;;;;;;5076144;28;20016;-74
2022/11/19 08:39:38;;;;;;;10.25;8.13;;;;;;;;;;5094796;28;20024;-74
2022/11/19 08:44:47;;;;;;;8.88;7.70;;;;;;;;;;5095215;28;20032;-68
2022/11/19 08:47:13;;;;;;;8.52;7.70;;;;;;;;;;5095038;28;20027;-75
2022/11/19 08:49:38;;;;;;;9.40;8.40;;;;;;;;;;5076864;28;20035;-74
2022/11/19 08:52:03;;;;;;;8.60;7.80;;;;;;;;;;5095892;28;20069;-74
2022/11/19 08:54:29;;;;;;;7.05;6.38;;;;;;;;;;5076582;28;20051;-74
2022/11/19 08:56:54;;;;;;;6.40;5.80;;;;;;;;;;5094661;28;20028;-75
2022/11/19 08:59:20;;;;;;;9.07;6.20;;;;;;;;;;5094676;28;20028;-74
2022/11/19 09:01:46;;;;;;;5.85;5.35;;;;;;;;;;5076559;28;20028;-74
2022/11/19 09:04:11;;;;;;;5.30;4.80;;;;;;;;;;5092460;28;20117;-76
2022/11/19 09:06:37;;;;;;;7.60;6.78;;;;;;;;;;5094492;28;20020;-73
2022/11/19 09:09:03;;;;;;;8.75;7.70;;;;;;;;;;5095252;28;20031;-74
2022/11/19 09:11:28;;;;;;;26.50;14.80;;;;;;;;;;5077030;28;20016;-71
2022/11/19 09:13:55;;;;;;;10.05;7.32;;;;;;;;;;5095385;28;20534;-74
2022/11/19 09:16:20;;;;;;;6.68;6.07;;;;;;;;;;5094907;28;20058;-74
2022/11/19 09:18:46;;;;;;;6.38;5.82;;;;;;;;;;5094571;28;20064;-75
2022/11/19 09:21:11;;;;;;;7.68;6.88;;;;;;;;;;5094640;28;20020;-76
2022/11/19 09:23:37;;;;;;;7.10;5.90;;;;;;;;;;5093824;28;20381;-74
2022/11/19 09:26:04;;;;;;;6.60;5.93;;;;;;;;;;5075688;28;20066;-74
2022/11/19 09:28:30;;;;;;;5.00;4.60;;;;;;;;;;5075616;28;20382;-75
2022/11/19 09:30:56;;;;;;;4.65;4.25;;;;;;;;;;5093714;28;20024;-74
2022/11/19 09:33:22;;;;;;;4.78;4.47;;;;;;;;;;5093605;28;20032;-74
2022/11/19 09:35:47;;;;;;;5.00;4.60;;;;;;;;;;5075324;28;20477;-74
2022/11/19 09:38:13;;;;;;;6.75;5.00;;;;;;;;;;5075320;28;20127;-74
2022/11/19 09:40:42;;;;;;;5.10;4.70;;;;;;;;;;5075027;28;20119;-74
2022/11/19 09:43:15;;;;;;;5.47;5.07;;;;;;;;;;5075302;28;20465;-75
2022/11/19 09:45:58;;;;;;;5.90;5.40;;;;;;;;;;5093387;28;20024;-74
2022/11/19 09:48:44;;;;;;;5.35;4.95;;;;;;;;;;5075175;28;20379;-74
2022/11/19 09:51:14;;;;;;;6.60;6.00;;;;;;;;;;5093335;28;20040;-74
2022/11/19 09:53:44;;;;;;;7.13;5.70;;;;;;;;;;5093281;28;20101;-75
2022/11/19 09:56:09;;;;;;;;;;;;;;;;;;5075590;28;20024;-74
2022/11/19 09:58:40;;;;;;;12.43;9.80;;;;;;;;;;5093235;28;19995;-69
2022/11/19 10:01:05;;;;;;;;;;;;;;;;;;5093752;28;20387;-70
2022/11/19 10:03:31;;;;;;;10.13;8.67;;;;;;;;;;5093706;28;19908;-69
2022/11/19 10:06:08;;;;;;;8.05;6.57;;;;;;;;;;5093256;28;20035;-71
2022/11/19 10:08:40;;;;;;;6.70;6.00;;;;;;;;;;5092907;28;20036;-70
2022/11/19 10:11:13;;;;;;;7.57;6.75;;;;;;;;;;5074955;28;20528;-70
2022/11/19 10:13:50;;;;;;;7.30;6.60;;;;;;;;;;5092878;28;20036;-70
2022/11/19 10:16:21;;;;;;;8.07;6.80;;;;;;;;;;5092451;28;20056;-70
2022/11/19 10:18:46;;;;;;;;;;;;;;;;;;5093133;28;20466;-71
2022/11/19 10:21:31;;;;;;;7.03;6.33;;;;;;;;;;5088910;28;19908;-71
2022/11/19 10:24:02;;;;;;;6.55;5.45;;;;;;;;;;5090349;28;20028;-70
2022/11/19 10:26:34;;;;;;;8.55;6.28;;;;;;;;;;5090319;28;20059;-71
2022/11/19 10:29:00;;;;;;;6.93;5.95;;;;;;;;;;5068077;28;20020;-71
2022/11/19 10:31:26;;;;;;;7.47;6.00;;;;;;;;;;5091212;28;20475;-71
2022/11/19 10:33:54;;;;;;;10.40;8.27;;;;;;;;;;5074946;28;20030;-71
2022/11/19 10:36:19;;;;;;;7.07;6.38;;;;;;;;;;5075214;28;20027;-71
2022/11/19 10:38:56;;;;;;;7.85;6.13;;;;;;;;;;5092341;28;20040;-70
2022/11/19 10:41:41;;;;;;;7.53;6.47;;;;;;;;;;5092068;28;20427;-74
2022/11/19 10:44:10;;;;;;;8.10;7.03;;;;;;;;;;5073301;28;20482;-71
2022/11/19 10:46:35;;;;;;;8.10;6.60;;;;;;;;;;5092776;28;20027;-70
2022/11/19 10:49:01;;;;;;;7.70;6.88;;;;;;;;;;5093070;28;20028;-70
2022/11/19 10:51:28;;;;;;;10.45;8.27;;;;;;;;;;5092498;28;20107;-71
2022/11/19 10:53:54;;;;;;;8.10;6.53;;;;;;;;;;5093069;28;20438;-74
2022/11/19 10:56:28;;;;;;;6.93;6.32;;;;;;;;;;5092389;28;20058;-71
2022/11/19 10:58:56;;;;;;;12.20;8.63;;;;;;;;;;5058453;28;20032;-73
2022/11/19 11:01:30;;;;;;;10.52;7.50;;;;;;;;;;5092590;28;20028;-73
2022/11/19 11:04:04;;;;;;;8.50;7.18;;;;;;;;;;5091944;28;20047;-74
2022/11/19 11:06:49;;;;;;;15.90;9.60;;;;;;;;;;5091926;28;20111;-73
2022/11/19 11:09:26;;;;;;;9.32;8.43;;;;;;;;;;5091941;28;20107;-74
2022/11/19 11:14:52;;;;;;;8.70;7.40;;;;;;;;;;5092014;28;20038;-74
2022/11/19 11:17:19;;;;;;;11.63;7.50;;;;;;;;;;5091863;28;20036;-74
2022/11/19 11:19:54;;;;;;;18.90;10.95;;;;;;;;;;5091949;28;20464;-74
2022/11/19 11:22:19;;;;;;;14.70;9.68;;;;;;;;;;5091548;28;20039;-74
2022/11/19 11:24:44;;;;;;;22.77;11.63;;;;;;;;;;5091922;28;20024;-74
2022/11/19 11:27:17;;;;;;;20.15;12.38;;;;;;;;;;5092442;28;20031;-70
2022/11/19 11:29:43;;;;;;;24.30;12.27;;;;;;;;;;5095536;28;20515;-71
2022/11/19 11:32:30;;;;;;;10.82;8.70;;;;;;;;;;5095509;28;20032;-71
2022/11/19 11:34:55;;;;;;;13.13;8.63;;;;;;;;;;5095364;28;20065;-70
2022/11/19 11:37:21;;;;;;;11.15;8.32;;;;;;;;;;5077140;28;20016;-71
2022/11/19 11:39:52;;;;;;;12.18;9.10;;;;;;;;;;5077311;28;20112;-70
2022/11/19 11:42:17;;;;;;;;;;;;;;;;;;5077473;28;20040;-71
2022/11/19 11:45:09;;;;;;;13.23;9.00;;;;;;;;;;5060466;28;20441;-70
2022/11/19 11:47:36;;;;;;;10.60;8.55;;;;;;;;;;5091215;28;20561;-71
2022/11/19 11:50:01;;;;;;;8.68;7.72;;;;;;;;;;5076943;28;20020;-71
2022/11/19 11:52:44;;;;;;;11.77;8.85;;;;;;;;;;5077122;28;20030;-70
2022/11/19 11:55:14;;;;;;;11.27;9.75;;;;;;;;;;5094925;28;20039;-70
2022/11/19 11:57:56;;;;;;;19.13;11.75;;;;;;;;;;5077028;28;20032;-71
2022/11/19 12:00:38;;;;;;;13.38;9.73;;;;;;;;;;5076940;28;20040;-70
2022/11/19 12:03:04;;;;;;;11.38;9.40;;;;;;;;;;5094738;28;20021;-71
2022/11/19 12:05:48;;;;;;;21.88;11.60;;;;;;;;;;5095010;28;20450;-70
2022/11/19 12:08:13;;;;;;;18.73;10.40;;;;;;;;;;5076848;28;20036;-70
2022/11/19 12:11:00;;;;;;;12.55;8.45;;;;;;;;;;5094798;28;20028;-70
2022/11/19 12:13:28;;;;;;;11.73;8.80;;;;;;;;;;5094785;28;20428;-70
2022/11/19 12:16:17;;;;;;;17.65;10.95;;;;;;;;;;5095111;28;20020;-70
2022/11/19 12:19:01;;;;;;;12.05;9.18;;;;;;;;;;5094772;28;20031;-70
2022/11/19 12:21:46;;;;;;;11.23;8.15;;;;;;;;;;5094996;28;20031;-70
2022/11/19 12:24:27;;;;;;;14.43;9.40;;;;;;;;;;5095252;28;20024;-70
2022/11/19 12:26:55;;;;;;;26.27;13.55;;;;;;;;;;5077507;28;20055;-69
2022/11/19 12:29:37;;;;;;;13.05;9.27;;;;;;;;;;5076496;28;20050;-75
2022/11/19 12:32:14;;;;;;;11.23;8.38;;;;;;;;;;5089218;28;20067;-73
2022/11/19 12:34:57;;;;;;;11.90;8.43;;;;;;;;;;5093105;28;20024;-74
2022/11/19 12:37:41;;;;;;;13.02;8.88;;;;;;;;;;5092737;28;20039;-74
2022/11/19 12:40:10;;;;;;;10.25;8.25;;;;;;;;;;5073594;28;20444;-74
2022/11/19 12:42:41;;;;;;;16.75;10.48;;;;;;;;;;5092257;28;20040;-74
2022/11/19 12:45:10;;;;;;;35.17;19.38;;;;;;;;;;5092361;28;20039;-74
2022/11/19 12:47:51;;;;;;;25.15;16.08;;;;;;;;;;5091504;28;20472;-74
2022/11/19 12:50:36;;;;;;;11.38;9.05;;;;;;;;;;5092284;28;20458;-74
2022/11/19 12:53:11;;;;;;;9.68;8.25;;;;;;;;;;5077788;28;20036;-74
2022/11/19 12:55:50;;;;;;;21.38;12.93;;;;;;;;;;5073133;28;20398;-75
2022/11/19 12:58:42;;;;;;;19.52;11.98;;;;;;;;;;5090430;28;20455;-74
2022/11/19 13:01:16;;;;;;;13.85;10.70;;;;;;;;;;5090363;28;20032;-74
2022/11/19 13:04:01;;;;;;;18.85;12.85;;;;;;;;;;5071454;28;20028;-73
2022/11/19 13:06:33;;;;;;;16.75;11.60;;;;;;;;;;5090427;28;20108;-74
2022/11/19 13:09:06;;;;;;;17.17;12.02;;;;;;;;;;5071243;28;20028;-74
2022/11/19 13:11:38;;;;;;;12.27;10.07;;;;;;;;;;5070354;28;20028;-73
2022/11/19 13:14:11;;;;;;;15.95;10.93;;;;;;;;;;5089978;28;20036;-73
2022/11/19 13:16:38;;;;;;;15.80;11.23;;;;;;;;;;5089467;28;20074;-75
2022/11/19 13:19:11;;;;;;;15.68;10.60;;;;;;;;;;5090681;28;20020;-73
2022/11/19 13:21:46;;;;;;;12.38;9.18;;;;;;;;;;5089780;28;20531;-77
2022/11/19 13:24:31;;;;;;;11.57;9.07;;;;;;;;;;5091773;28;20024;-74
2022/11/19 13:26:59;;;;;;;14.93;11.27;;;;;;;;;;5090630;28;20455;-75
2022/11/19 13:29:30;;;;;;;12.30;9.85;;;;;;;;;;5072380;28;20025;-72
2022/11/19 13:31:57;;;;;;;15.27;10.73;;;;;;;;;;5072443;28;20063;-73
2022/11/19 13:34:31;;;;;;;16.98;12.07;;;;;;;;;;5093267;28;20012;-72
2022/11/19 13:36:56;;;;;;;24.10;15.35;;;;;;;;;;5093375;28;20024;-72
2022/11/19 13:39:30;;;;;;;18.00;12.90;;;;;;;;;;5091610;28;20545;-72
2022/11/19 13:44:42;;;;;;;15.70;11.85;;;;;;;;;;5072813;28;20027;-72
2022/11/19 13:47:16;;;;;;;17.55;12.45;;;;;;;;;;5090669;28;20032;-73
2022/11/19 13:49:44;;;;;;;16.48;12.45;;;;;;;;;;5072040;28;20059;-72
2022/11/19 13:52:28;;;;;;;15.88;11.77;;;;;;;;;;5090416;28;20027;-72
2022/11/19 13:54:55;;;;;;;21.58;13.65;;;;;;;;;;5089545;28;20027;-72
2022/11/19 13:57:25;;;;;;;20.33;14.60;;;;;;;;;;5089286;28;20023;-71
2022/11/19 13:59:55;;;;;;;19.77;14.23;;;;;;;;;;5070933;28;20036;-71
2022/11/19 14:02:29;;;;;;;17.50;13.65;;;;;;;;;;5088330;28;20490;-72
2022/11/19 14:04:55;;;;;;;22.08;15.38;;;;;;;;;;5089173;28;20441;-72
2022/11/19 14:07:49;;;;;;;24.67;16.85;;;;;;;;;;5054706;28;20031;-72
2022/11/19 14:10:33;;;;;;;34.55;22.33;;;;;;;;;;5071633;28;20040;-72
2022/11/19 14:13:02;;;;;;;63.92;29.70;;;;;;;;;;5088356;28;20020;-72
2022/11/19 14:27:17;;;;;;;30.25;20.80;;;;;;;;;;5088519;28;20105;-73
2022/11/19 14:29:43;;;;;;;37.85;24.27;;;;;;;;;;5071914;28;20046;-71
2022/11/19 14:32:08;;;;;;;23.15;15.73;;;;;;;;;;5088873;28;20516;-69
2022/11/19 14:34:35;;;;;;;17.95;12.60;;;;;;;;;;5088243;28;20109;-71
2022/11/19 14:37:23;;;;;;;20.48;14.30;;;;;;;;;;5088230;28;20085;-71
2022/11/19 14:39:54;;;;;;;36.47;23.23;;;;;;;;;;5058716;28;20036;-70
2022/11/19 14:42:21;;;;;;;43.28;25.98;;;;;;;;;;5069397;28;20075;-71
2022/11/19 14:45:01;;;;;;;66.28;41.30;;;;;;;;;;5088261;28;20158;-72
2022/11/19 14:47:30;;;;;;;45.30;26.52;;;;;;;;;;5087977;28;20028;-71
2022/11/19 14:49:57;;;;;;;51.83;35.63;;;;;;;;;;5087851;28;20024;-71
2022/11/19 14:52:27;;;;;;;34.60;20.85;;;;;;;;;;5069235;28;20482;-71
2022/11/19 14:54:58;;;;;;;46.03;29.38;;;;;;;;;;5087735;28;20060;-70
2022/11/19 14:57:28;;;;;;;34.05;21.45;;;;;;;;;;5088002;28;20043;-71
2022/11/19 14:59:54;;;;;;;;;;;;;;;;;;5069724;28;20039;-71
2022/11/19 15:02:22;;;;;;;32.40;21.77;;;;;;;;;;5088736;28;19912;-71
2022/11/19 15:04:50;;;;;;;24.10;16.30;;;;;;;;;;5091892;28;20032;-71
2022/11/19 15:07:26;;;;;;;19.73;14.90;;;;;;;;;;5091860;28;20048;-70
2022/11/19 15:10:10;;;;;;;19.33;14.05;;;;;;;;;;5089372;28;20470;-71
2022/11/19 15:12:42;;;;;;;19.30;13.82;;;;;;;;;;5069950;28;20035;-71
2022/11/19 15:15:21;;;;;;;18.17;13.27;;;;;;;;;;5070303;28;20043;-72
2022/11/19 15:18:02;;;;;;;20.35;13.60;;;;;;;;;;5088884;28;20482;-72
2022/11/19 15:20:35;;;;;;;20.00;13.90;;;;;;;;;;5088615;28;20036;-73
2022/11/19 15:23:09;;;;;;;21.30;13.40;;;;;;;;;;5088449;28;20028;-72